sensor_id;sensor_type;location;lat;lon;timestamp;P1;durP1;ratioP1;P2;durP2;ratioP2
2021;SDS011;1015;49.756;6.994;2023-06-22T00:02:14;17.53;;;15.70;;
2021;SDS011;1015;49.756;6.994;2023-06-22T00:04:42;17.67;;;16.00;;
2021;SDS011;1015;49.756;6.994;2023-06-22T00:07:10;18.03;;;16.43;;
2021;SDS011;1015;49.756;6.994;2023-06-22T00:09:37;18.20;;;16.37;;
2021;SDS011;1015;49.756;6.994;2023-06-22T00:12:04;19.50;;;17.70;;
2021;SDS011;1015;49.756;6.994;2023-06-22T00:14:32;15.43;;;14.03;;
2021;SDS011;1015;49.756;6.994;2023-06-22T00:16:59;16.70;;;15.10;;
2021;SDS011;1015;49.756;6.994;2023-06-22T00:19:26;16.30;;;14.70;;
2021;SDS011;1015;49.756;6.994;2023-06-22T00:21:55;16.50;;;14.90;;
2021;SDS011;1015;49.756;6.994;2023-06-22T00:24:25;16.70;;;15.10;;
2021;SDS011;1015;49.756;6.994;2023-06-22T00:26:52;15.80;;;14.30;;
2021;SDS011;1015;49.756;6.994;2023-06-22T00:29:19;15.47;;;13.97;;
2021;SDS011;1015;49.756;6.994;2023-06-22T00:31:47;15.50;;;14.00;;
2021;SDS011;1015;49.756;6.994;2023-06-22T00:34:14;15.13;;;13.73;;
2021;SDS011;1015;49.756;6.994;2023-06-22T00:36:42;14.50;;;13.30;;
2021;SDS011;1015;49.756;6.994;2023-06-22T00:39:10;14.80;;;13.40;;
2021;SDS011;1015;49.756;6.994;2023-06-22T00:41:37;14.23;;;12.83;;
2021;SDS011;1015;49.756;6.994;2023-06-22T00:44:05;13.70;;;12.50;;
2021;SDS011;1015;49.756;6.994;2023-06-22T00:46:33;15.03;;;13.47;;
2021;SDS011;1015;49.756;6.994;2023-06-22T00:49:01;14.20;;;12.90;;
2021;SDS011;1015;49.756;6.994;2023-06-22T00:51:30;14.13;;;12.93;;
2021;SDS011;1015;49.756;6.994;2023-06-22T00:53:57;16.37;;;14.67;;
2021;SDS011;1015;49.756;6.994;2023-06-22T00:56:26;15.67;;;14.27;;
2021;SDS011;1015;49.756;6.994;2023-06-22T00:58:55;16.50;;;14.90;;
2021;SDS011;1015;49.756;6.994;2023-06-22T01:01:22;16.20;;;14.60;;
2021;SDS011;1015;49.756;6.994;2023-06-22T01:03:50;15.57;;;14.27;;
2021;SDS011;1015;49.756;6.994;2023-06-22T01:06:19;15.80;;;14.13;;
2021;SDS011;1015;49.756;6.994;2023-06-22T01:08:53;15.43;;;13.93;;
2021;SDS011;1015;49.756;6.994;2023-06-22T01:11:24;15.43;;;14.03;;
2021;SDS011;1015;49.756;6.994;2023-06-22T01:13:56;16.77;;;15.00;;
2021;SDS011;1015;49.756;6.994;2023-06-22T01:16:25;17.03;;;15.23;;
2021;SDS011;1015;49.756;6.994;2023-06-22T01:18:54;15.80;;;14.40;;
2021;SDS011;1015;49.756;6.994;2023-06-22T01:21:23;15.30;;;13.90;;
2021;SDS011;1015;49.756;6.994;2023-06-22T01:23:54;18.40;;;15.47;;
2021;SDS011;1015;49.756;6.994;2023-06-22T01:26:26;16.13;;;14.53;;
2021;SDS011;1015;49.756;6.994;2023-06-22T01:28:57;16.80;;;14.80;;
2021;SDS011;1015;49.756;6.994;2023-06-22T01:31:26;16.37;;;14.77;;
2021;SDS011;1015;49.756;6.994;2023-06-22T01:33:57;18.07;;;16.23;;
2021;SDS011;1015;49.756;6.994;2023-06-22T01:36:25;15.47;;;14.00;;
2021;SDS011;1015;49.756;6.994;2023-06-22T01:38:53;15.43;;;13.97;;
2021;SDS011;1015;49.756;6.994;2023-06-22T01:41:20;17.30;;;14.60;;
2021;SDS011;1015;49.756;6.994;2023-06-22T01:43:48;16.93;;;15.30;;
2021;SDS011;1015;49.756;6.994;2023-06-22T01:46:17;14.83;;;13.43;;
2021;SDS011;1015;49.756;6.994;2023-06-22T01:48:45;17.17;;;15.57;;
2021;SDS011;1015;49.756;6.994;2023-06-22T01:51:13;16.93;;;15.37;;
2021;SDS011;1015;49.756;6.994;2023-06-22T01:53:40;16.40;;;14.90;;
2021;SDS011;1015;49.756;6.994;2023-06-22T01:56:07;17.23;;;15.43;;
2021;SDS011;1015;49.756;6.994;2023-06-22T01:58:35;16.60;;;15.00;;
2021;SDS011;1015;49.756;6.994;2023-06-22T02:01:05;17.00;;;15.40;;
2021;SDS011;1015;49.756;6.994;2023-06-22T02:03:38;16.87;;;15.23;;
2021;SDS011;1015;49.756;6.994;2023-06-22T02:06:10;15.97;;;14.50;;
2021;SDS011;1015;49.756;6.994;2023-06-22T02:08:40;17.33;;;15.60;;
2021;SDS011;1015;49.756;6.994;2023-06-22T02:11:08;17.93;;;16.13;;
2021;SDS011;1015;49.756;6.994;2023-06-22T02:13:36;16.83;;;15.20;;
2021;SDS011;1015;49.756;6.994;2023-06-22T02:16:07;16.50;;;14.80;;
2021;SDS011;1015;49.756;6.994;2023-06-22T02:18:35;16.50;;;15.00;;
2021;SDS011;1015;49.756;6.994;2023-06-22T02:21:03;16.27;;;14.67;;
2021;SDS011;1015;49.756;6.994;2023-06-22T02:23:31;15.07;;;13.70;;
2021;SDS011;1015;49.756;6.994;2023-06-22T02:26:00;15.20;;;13.90;;
2021;SDS011;1015;49.756;6.994;2023-06-22T02:28:28;17.10;;;15.40;;
2021;SDS011;1015;49.756;6.994;2023-06-22T02:30:55;16.30;;;14.80;;
2021;SDS011;1015;49.756;6.994;2023-06-22T02:33:22;16.40;;;14.80;;
2021;SDS011;1015;49.756;6.994;2023-06-22T02:35:49;16.70;;;15.00;;
2021;SDS011;1015;49.756;6.994;2023-06-22T02:38:18;16.67;;;15.07;;
2021;SDS011;1015;49.756;6.994;2023-06-22T02:40:45;17.03;;;15.43;;
2021;SDS011;1015;49.756;6.994;2023-06-22T02:43:13;17.97;;;16.27;;
2021;SDS011;1015;49.756;6.994;2023-06-22T02:45:40;17.37;;;15.67;;
2021;SDS011;1015;49.756;6.994;2023-06-22T02:48:07;16.83;;;15.13;;
2021;SDS011;1015;49.756;6.994;2023-06-22T02:50:34;16.27;;;14.67;;
2021;SDS011;1015;49.756;6.994;2023-06-22T02:53:01;16.40;;;14.77;;
2021;SDS011;1015;49.756;6.994;2023-06-22T02:55:30;17.33;;;15.70;;
2021;SDS011;1015;49.756;6.994;2023-06-22T02:57:57;16.27;;;14.67;;
2021;SDS011;1015;49.756;6.994;2023-06-22T03:00:25;17.50;;;15.90;;
2021;SDS011;1015;49.756;6.994;2023-06-22T03:02:55;16.83;;;15.13;;
2021;SDS011;1015;49.756;6.994;2023-06-22T03:05:23;17.10;;;14.57;;
2021;SDS011;1015;49.756;6.994;2023-06-22T03:07:51;18.20;;;14.40;;
2021;SDS011;1015;49.756;6.994;2023-06-22T03:10:18;18.00;;;16.10;;
2021;SDS011;1015;49.756;6.994;2023-06-22T03:12:47;18.93;;;17.03;;
2021;SDS011;1015;49.756;6.994;2023-06-22T03:15:14;17.80;;;16.10;;
2021;SDS011;1015;49.756;6.994;2023-06-22T03:17:42;18.20;;;16.33;;
2021;SDS011;1015;49.756;6.994;2023-06-22T03:20:09;18.30;;;16.60;;
2021;SDS011;1015;49.756;6.994;2023-06-22T03:22:37;16.90;;;15.30;;
2021;SDS011;1015;49.756;6.994;2023-06-22T03:25:05;18.00;;;16.20;;
2021;SDS011;1015;49.756;6.994;2023-06-22T03:27:39;17.50;;;15.80;;
2021;SDS011;1015;49.756;6.994;2023-06-22T03:30:09;17.87;;;16.10;;
2021;SDS011;1015;49.756;6.994;2023-06-22T03:32:36;17.77;;;15.97;;
2021;SDS011;1015;49.756;6.994;2023-06-22T03:35:04;17.80;;;16.07;;
2021;SDS011;1015;49.756;6.994;2023-06-22T03:37:32;18.70;;;16.90;;
2021;SDS011;1015;49.756;6.994;2023-06-22T03:39:59;18.67;;;16.87;;
2021;SDS011;1015;49.756;6.994;2023-06-22T03:42:26;18.20;;;16.47;;
2021;SDS011;1015;49.756;6.994;2023-06-22T03:44:54;18.53;;;16.70;;
2021;SDS011;1015;49.756;6.994;2023-06-22T03:47:22;19.23;;;17.33;;
2021;SDS011;1015;49.756;6.994;2023-06-22T03:49:50;18.70;;;16.80;;
2021;SDS011;1015;49.756;6.994;2023-06-22T03:52:20;18.57;;;16.67;;
2021;SDS011;1015;49.756;6.994;2023-06-22T03:54:47;18.57;;;16.77;;
2021;SDS011;1015;49.756;6.994;2023-06-22T03:57:14;19.07;;;16.90;;
2021;SDS011;1015;49.756;6.994;2023-06-22T03:59:41;16.83;;;15.23;;
2021;SDS011;1015;49.756;6.994;2023-06-22T04:02:09;19.50;;;17.43;;
2021;SDS011;1015;49.756;6.994;2023-06-22T04:04:37;19.97;;;17.97;;
2021;SDS011;1015;49.756;6.994;2023-06-22T04:07:05;20.40;;;18.40;;
2021;SDS011;1015;49.756;6.994;2023-06-22T04:09:32;18.37;;;16.67;;
2021;SDS011;1015;49.756;6.994;2023-06-22T04:12:00;19.33;;;17.30;;
2021;SDS011;1015;49.756;6.994;2023-06-22T04:14:28;19.60;;;17.70;;
2021;SDS011;1015;49.756;6.994;2023-06-22T04:16:55;19.50;;;17.70;;
2021;SDS011;1015;49.756;6.994;2023-06-22T04:19:22;17.90;;;16.30;;
2021;SDS011;1015;49.756;6.994;2023-06-22T04:21:51;19.70;;;17.77;;
2021;SDS011;1015;49.756;6.994;2023-06-22T04:24:18;19.20;;;17.50;;
2021;SDS011;1015;49.756;6.994;2023-06-22T04:26:45;18.43;;;16.73;;
2021;SDS011;1015;49.756;6.994;2023-06-22T04:29:12;20.10;;;18.07;;
2021;SDS011;1015;49.756;6.994;2023-06-22T04:31:40;18.83;;;16.97;;
2021;SDS011;1015;49.756;6.994;2023-06-22T04:34:07;19.83;;;17.83;;
2021;SDS011;1015;49.756;6.994;2023-06-22T04:36:35;19.83;;;17.90;;
2021;SDS011;1015;49.756;6.994;2023-06-22T04:39:07;19.73;;;17.83;;
2021;SDS011;1015;49.756;6.994;2023-06-22T04:41:35;18.70;;;17.00;;
2021;SDS011;1015;49.756;6.994;2023-06-22T04:44:08;18.43;;;16.80;;
2021;SDS011;1015;49.756;6.994;2023-06-22T04:46:36;19.13;;;17.23;;
2021;SDS011;1015;49.756;6.994;2023-06-22T04:49:04;16.67;;;15.17;;
2021;SDS011;1015;49.756;6.994;2023-06-22T04:51:39;16.30;;;14.90;;
2021;SDS011;1015;49.756;6.994;2023-06-22T04:54:09;14.63;;;13.37;;
2021;SDS011;1015;49.756;6.994;2023-06-22T04:56:36;14.50;;;13.20;;
2021;SDS011;1015;49.756;6.994;2023-06-22T04:59:06;13.30;;;12.10;;
2021;SDS011;1015;49.756;6.994;2023-06-22T05:01:38;11.50;;;10.40;;
2021;SDS011;1015;49.756;6.994;2023-06-22T05:04:05;12.10;;;11.00;;
2021;SDS011;1015;49.756;6.994;2023-06-22T05:06:32;11.50;;;10.30;;
2021;SDS011;1015;49.756;6.994;2023-06-22T05:09:00;11.20;;;10.00;;
2021;SDS011;1015;49.756;6.994;2023-06-22T05:11:29;12.10;;;11.00;;
2021;SDS011;1015;49.756;6.994;2023-06-22T05:13:56;12.53;;;11.27;;
2021;SDS011;1015;49.756;6.994;2023-06-22T05:16:24;10.83;;;9.70;;
2021;SDS011;1015;49.756;6.994;2023-06-22T05:18:52;11.03;;;10.00;;
2021;SDS011;1015;49.756;6.994;2023-06-22T05:21:22;11.33;;;10.00;;
2021;SDS011;1015;49.756;6.994;2023-06-22T05:23:50;10.70;;;9.70;;
2021;SDS011;1015;49.756;6.994;2023-06-22T05:26:18;10.03;;;9.10;;
2021;SDS011;1015;49.756;6.994;2023-06-22T05:28:47;10.20;;;9.27;;
2021;SDS011;1015;49.756;6.994;2023-06-22T05:31:15;10.17;;;9.30;;
2021;SDS011;1015;49.756;6.994;2023-06-22T05:33:43;10.60;;;9.70;;
2021;SDS011;1015;49.756;6.994;2023-06-22T05:36:11;11.20;;;10.17;;
2021;SDS011;1015;49.756;6.994;2023-06-22T05:38:38;10.50;;;9.60;;
2021;SDS011;1015;49.756;6.994;2023-06-22T05:41:06;10.37;;;9.57;;
2021;SDS011;1015;49.756;6.994;2023-06-22T05:43:33;10.17;;;9.30;;
2021;SDS011;1015;49.756;6.994;2023-06-22T05:46:02;10.83;;;9.90;;
2021;SDS011;1015;49.756;6.994;2023-06-22T05:48:29;10.50;;;9.60;;
2021;SDS011;1015;49.756;6.994;2023-06-22T05:50:56;10.73;;;9.70;;
2021;SDS011;1015;49.756;6.994;2023-06-22T05:53:24;11.33;;;10.23;;
2021;SDS011;1015;49.756;6.994;2023-06-22T05:55:51;10.00;;;9.20;;
2021;SDS011;1015;49.756;6.994;2023-06-22T05:58:18;9.87;;;9.07;;
2021;SDS011;1015;49.756;6.994;2023-06-22T06:00:45;11.17;;;10.17;;
2021;SDS011;1015;49.756;6.994;2023-06-22T06:03:14;10.47;;;9.40;;
2021;SDS011;1015;49.756;6.994;2023-06-22T06:05:42;11.93;;;10.83;;
2021;SDS011;1015;49.756;6.994;2023-06-22T06:08:10;10.73;;;9.70;;
2021;SDS011;1015;49.756;6.994;2023-06-22T06:10:37;12.53;;;9.77;;
2021;SDS011;1015;49.756;6.994;2023-06-22T06:13:04;9.73;;;8.90;;
2021;SDS011;1015;49.756;6.994;2023-06-22T06:15:32;10.87;;;9.87;;
2021;SDS011;1015;49.756;6.994;2023-06-22T06:17:59;10.37;;;9.47;;
2021;SDS011;1015;49.756;6.994;2023-06-22T06:20:29;11.10;;;10.10;;
2021;SDS011;1015;49.756;6.994;2023-06-22T06:22:56;11.13;;;10.20;;
2021;SDS011;1015;49.756;6.994;2023-06-22T06:25:23;11.73;;;10.53;;
2021;SDS011;1015;49.756;6.994;2023-06-22T06:27:51;11.10;;;10.10;;
2021;SDS011;1015;49.756;6.994;2023-06-22T06:30:19;12.57;;;11.40;;
2021;SDS011;1015;49.756;6.994;2023-06-22T06:32:47;15.10;;;11.33;;
2021;SDS011;1015;49.756;6.994;2023-06-22T06:35:15;11.60;;;10.53;;
2021;SDS011;1015;49.756;6.994;2023-06-22T06:37:44;12.53;;;11.03;;
2021;SDS011;1015;49.756;6.994;2023-06-22T06:40:12;10.80;;;9.70;;
2021;SDS011;1015;49.756;6.994;2023-06-22T06:42:41;12.13;;;11.03;;
2021;SDS011;1015;49.756;6.994;2023-06-22T06:45:10;11.17;;;10.20;;
2021;SDS011;1015;49.756;6.994;2023-06-22T06:47:38;10.93;;;9.93;;
2021;SDS011;1015;49.756;6.994;2023-06-22T06:50:06;11.70;;;10.67;;
2021;SDS011;1015;49.756;6.994;2023-06-22T06:52:33;11.17;;;10.10;;
2021;SDS011;1015;49.756;6.994;2023-06-22T06:55:02;11.73;;;10.63;;
2021;SDS011;1015;49.756;6.994;2023-06-22T06:57:33;10.90;;;9.90;;
2021;SDS011;1015;49.756;6.994;2023-06-22T07:00:02;10.47;;;9.60;;
2021;SDS011;1015;49.756;6.994;2023-06-22T07:02:37;10.80;;;9.80;;
2021;SDS011;1015;49.756;6.994;2023-06-22T07:05:04;11.00;;;10.00;;
2021;SDS011;1015;49.756;6.994;2023-06-22T07:07:31;11.00;;;10.10;;
2021;SDS011;1015;49.756;6.994;2023-06-22T07:09:59;10.77;;;9.70;;
2021;SDS011;1015;49.756;6.994;2023-06-22T07:12:28;10.43;;;9.33;;
2021;SDS011;1015;49.756;6.994;2023-06-22T07:14:56;9.67;;;8.77;;
2021;SDS011;1015;49.756;6.994;2023-06-22T07:17:27;9.20;;;8.40;;
2021;SDS011;1015;49.756;6.994;2023-06-22T07:19:54;10.90;;;8.50;;
2021;SDS011;1015;49.756;6.994;2023-06-22T07:22:22;9.90;;;8.87;;
2021;SDS011;1015;49.756;6.994;2023-06-22T07:24:49;10.27;;;9.43;;
2021;SDS011;1015;49.756;6.994;2023-06-22T07:27:16;9.20;;;8.40;;
2021;SDS011;1015;49.756;6.994;2023-06-22T07:29:46;10.60;;;9.50;;
2021;SDS011;1015;49.756;6.994;2023-06-22T07:32:13;10.10;;;9.17;;
2021;SDS011;1015;49.756;6.994;2023-06-22T07:34:40;9.80;;;8.90;;
2021;SDS011;1015;49.756;6.994;2023-06-22T07:37:08;9.20;;;8.30;;
2021;SDS011;1015;49.756;6.994;2023-06-22T07:39:35;8.90;;;8.20;;
2021;SDS011;1015;49.756;6.994;2023-06-22T07:42:04;9.77;;;8.83;;
2021;SDS011;1015;49.756;6.994;2023-06-22T07:44:31;9.83;;;8.80;;
2021;SDS011;1015;49.756;6.994;2023-06-22T07:47:00;8.63;;;7.93;;
2021;SDS011;1015;49.756;6.994;2023-06-22T07:49:27;8.97;;;8.20;;
2021;SDS011;1015;49.756;6.994;2023-06-22T07:51:55;8.40;;;7.70;;
2021;SDS011;1015;49.756;6.994;2023-06-22T07:54:22;9.40;;;8.50;;
2021;SDS011;1015;49.756;6.994;2023-06-22T07:56:49;8.70;;;7.80;;
2021;SDS011;1015;49.756;6.994;2023-06-22T07:59:18;9.20;;;7.70;;
2021;SDS011;1015;49.756;6.994;2023-06-22T08:01:45;8.67;;;7.70;;
2021;SDS011;1015;49.756;6.994;2023-06-22T08:04:15;9.27;;;8.37;;
2021;SDS011;1015;49.756;6.994;2023-06-22T08:06:42;7.90;;;7.23;;
2021;SDS011;1015;49.756;6.994;2023-06-22T08:09:10;9.50;;;8.60;;
2021;SDS011;1015;49.756;6.994;2023-06-22T08:11:37;9.30;;;8.40;;
2021;SDS011;1015;49.756;6.994;2023-06-22T08:14:04;9.57;;;8.57;;
2021;SDS011;1015;49.756;6.994;2023-06-22T08:16:31;9.20;;;8.40;;
2021;SDS011;1015;49.756;6.994;2023-06-22T08:18:59;8.47;;;7.63;;
2021;SDS011;1015;49.756;6.994;2023-06-22T08:21:27;9.23;;;8.33;;
2021;SDS011;1015;49.756;6.994;2023-06-22T08:23:55;9.23;;;8.33;;
2021;SDS011;1015;49.756;6.994;2023-06-22T08:26:22;9.07;;;8.27;;
2021;SDS011;1015;49.756;6.994;2023-06-22T08:28:49;8.87;;;8.00;;
2021;SDS011;1015;49.756;6.994;2023-06-22T08:31:17;8.53;;;7.73;;
2021;SDS011;1015;49.756;6.994;2023-06-22T08:33:44;7.70;;;7.10;;
2021;SDS011;1015;49.756;6.994;2023-06-22T08:36:12;7.50;;;6.80;;
2021;SDS011;1015;49.756;6.994;2023-06-22T08:38:40;7.73;;;7.13;;
2021;SDS011;1015;49.756;6.994;2023-06-22T08:41:08;8.10;;;7.03;;
2021;SDS011;1015;49.756;6.994;2023-06-22T08:43:35;7.80;;;7.10;;
2021;SDS011;1015;49.756;6.994;2023-06-22T08:46:02;8.13;;;7.03;;
2021;SDS011;1015;49.756;6.994;2023-06-22T08:48:29;9.17;;;8.27;;
2021;SDS011;1015;49.756;6.994;2023-06-22T08:50:56;8.53;;;7.73;;
2021;SDS011;1015;49.756;6.994;2023-06-22T08:53:24;8.73;;;7.83;;
2021;SDS011;1015;49.756;6.994;2023-06-22T08:55:52;10.03;;;8.20;;
2021;SDS011;1015;49.756;6.994;2023-06-22T08:58:19;8.30;;;7.50;;
2021;SDS011;1015;49.756;6.994;2023-06-22T09:00:49;8.67;;;7.97;;
2021;SDS011;1015;49.756;6.994;2023-06-22T09:03:16;7.77;;;7.03;;
2021;SDS011;1015;49.756;6.994;2023-06-22T09:05:45;8.50;;;7.80;;
2021;SDS011;1015;49.756;6.994;2023-06-22T09:08:12;8.50;;;7.77;;
2021;SDS011;1015;49.756;6.994;2023-06-22T09:10:40;8.73;;;7.83;;
2021;SDS011;1015;49.756;6.994;2023-06-22T09:13:08;7.83;;;7.17;;
2021;SDS011;1015;49.756;6.994;2023-06-22T09:15:35;8.30;;;7.60;;
2021;SDS011;1015;49.756;6.994;2023-06-22T09:18:03;7.20;;;6.60;;
2021;SDS011;1015;49.756;6.994;2023-06-22T09:20:30;8.10;;;7.30;;
2021;SDS011;1015;49.756;6.994;2023-06-22T09:22:57;8.40;;;7.60;;
2021;SDS011;1015;49.756;6.994;2023-06-22T09:25:24;9.73;;;7.67;;
2021;SDS011;1015;49.756;6.994;2023-06-22T09:27:52;8.60;;;7.80;;
2021;SDS011;1015;49.756;6.994;2023-06-22T09:30:21;8.43;;;7.70;;
2021;SDS011;1015;49.756;6.994;2023-06-22T09:32:48;10.17;;;9.27;;
2021;SDS011;1015;49.756;6.994;2023-06-22T09:35:16;9.43;;;8.67;;
2021;SDS011;1015;49.756;6.994;2023-06-22T09:37:43;9.80;;;8.80;;
2021;SDS011;1015;49.756;6.994;2023-06-22T09:40:11;9.80;;;8.43;;
2021;SDS011;1015;49.756;6.994;2023-06-22T09:42:41;9.43;;;8.20;;
2021;SDS011;1015;49.756;6.994;2023-06-22T09:45:09;9.70;;;8.80;;
2021;SDS011;1015;49.756;6.994;2023-06-22T09:47:38;8.23;;;7.43;;
2021;SDS011;1015;49.756;6.994;2023-06-22T09:50:06;8.73;;;7.97;;
2021;SDS011;1015;49.756;6.994;2023-06-22T09:52:33;9.00;;;8.30;;
2021;SDS011;1015;49.756;6.994;2023-06-22T09:55:01;9.03;;;8.33;;
2021;SDS011;1015;49.756;6.994;2023-06-22T09:57:29;9.13;;;8.23;;
2021;SDS011;1015;49.756;6.994;2023-06-22T09:59:56;9.17;;;8.27;;
2021;SDS011;1015;49.756;6.994;2023-06-22T10:02:24;9.83;;;9.03;;
2021;SDS011;1015;49.756;6.994;2023-06-22T10:04:52;9.53;;;8.63;;
2021;SDS011;1015;49.756;6.994;2023-06-22T10:07:20;9.77;;;8.80;;
2021;SDS011;1015;49.756;6.994;2023-06-22T10:09:47;8.53;;;7.63;;
2021;SDS011;1015;49.756;6.994;2023-06-22T10:12:14;8.27;;;7.53;;
2021;SDS011;1015;49.756;6.994;2023-06-22T10:14:42;9.27;;;8.43;;
2021;SDS011;1015;49.756;6.994;2023-06-22T10:17:09;8.70;;;7.80;;
2021;SDS011;1015;49.756;6.994;2023-06-22T10:19:36;8.57;;;7.70;;
2021;SDS011;1015;49.756;6.994;2023-06-22T10:22:05;8.20;;;7.60;;
2021;SDS011;1015;49.756;6.994;2023-06-22T10:24:32;8.10;;;7.40;;
2021;SDS011;1015;49.756;6.994;2023-06-22T10:27:00;8.47;;;7.77;;
2021;SDS011;1015;49.756;6.994;2023-06-22T10:29:27;8.10;;;7.50;;
2021;SDS011;1015;49.756;6.994;2023-06-22T10:31:54;8.60;;;7.90;;
2021;SDS011;1015;49.756;6.994;2023-06-22T10:34:21;9.00;;;8.20;;
2021;SDS011;1015;49.756;6.994;2023-06-22T10:36:50;9.07;;;8.10;;
2021;SDS011;1015;49.756;6.994;2023-06-22T10:39:19;11.10;;;8.67;;
2021;SDS011;1015;49.756;6.994;2023-06-22T10:41:46;9.00;;;8.10;;
2021;SDS011;1015;49.756;6.994;2023-06-22T10:44:14;9.10;;;8.20;;
2021;SDS011;1015;49.756;6.994;2023-06-22T10:46:42;8.30;;;7.47;;
2021;SDS011;1015;49.756;6.994;2023-06-22T10:49:09;9.70;;;7.80;;
2021;SDS011;1015;49.756;6.994;2023-06-22T10:51:37;9.17;;;8.30;;
2021;SDS011;1015;49.756;6.994;2023-06-22T10:54:04;9.03;;;8.23;;
2021;SDS011;1015;49.756;6.994;2023-06-22T10:56:33;9.07;;;8.33;;
2021;SDS011;1015;49.756;6.994;2023-06-22T10:59:00;8.90;;;8.10;;
2021;SDS011;1015;49.756;6.994;2023-06-22T11:01:28;8.87;;;7.97;;
2021;SDS011;1015;49.756;6.994;2023-06-22T11:03:56;9.70;;;8.73;;
2021;SDS011;1015;49.756;6.994;2023-06-22T11:06:23;9.17;;;8.37;;
2021;SDS011;1015;49.756;6.994;2023-06-22T11:08:50;8.33;;;7.73;;
2021;SDS011;1015;49.756;6.994;2023-06-22T11:11:18;9.57;;;8.53;;
2021;SDS011;1015;49.756;6.994;2023-06-22T11:13:46;10.00;;;8.50;;
2021;SDS011;1015;49.756;6.994;2023-06-22T11:16:13;11.70;;;8.50;;
2021;SDS011;1015;49.756;6.994;2023-06-22T11:18:41;9.80;;;8.90;;
2021;SDS011;1015;49.756;6.994;2023-06-22T11:21:08;8.80;;;8.00;;
2021;SDS011;1015;49.756;6.994;2023-06-22T11:23:35;9.47;;;8.67;;
2021;SDS011;1015;49.756;6.994;2023-06-22T11:26:02;9.17;;;8.30;;
2021;SDS011;1015;49.756;6.994;2023-06-22T11:28:30;9.33;;;8.43;;
2021;SDS011;1015;49.756;6.994;2023-06-22T11:30:58;10.27;;;8.50;;
2021;SDS011;1015;49.756;6.994;2023-06-22T11:33:25;8.80;;;8.00;;
2021;SDS011;1015;49.756;6.994;2023-06-22T11:35:53;8.40;;;7.53;;
2021;SDS011;1015;49.756;6.994;2023-06-22T11:38:21;7.73;;;7.03;;
2021;SDS011;1015;49.756;6.994;2023-06-22T11:40:48;8.00;;;7.30;;
2021;SDS011;1015;49.756;6.994;2023-06-22T11:43:16;9.37;;;7.70;;
2021;SDS011;1015;49.756;6.994;2023-06-22T11:45:43;9.27;;;7.27;;
2021;SDS011;1015;49.756;6.994;2023-06-22T11:48:11;8.70;;;7.00;;
2021;SDS011;1015;49.756;6.994;2023-06-22T11:50:39;10.10;;;7.20;;
2021;SDS011;1015;49.756;6.994;2023-06-22T11:53:06;7.60;;;6.93;;
2021;SDS011;1015;49.756;6.994;2023-06-22T11:55:33;9.33;;;7.23;;
2021;SDS011;1015;49.756;6.994;2023-06-22T11:58:00;7.90;;;7.10;;
2021;SDS011;1015;49.756;6.994;2023-06-22T12:00:30;8.47;;;7.63;;
2021;SDS011;1015;49.756;6.994;2023-06-22T12:02:57;7.20;;;6.50;;
2021;SDS011;1015;49.756;6.994;2023-06-22T12:05:25;6.83;;;6.13;;
2021;SDS011;1015;49.756;6.994;2023-06-22T12:07:53;7.83;;;7.00;;
2021;SDS011;1015;49.756;6.994;2023-06-22T12:10:20;7.97;;;7.20;;
2021;SDS011;1015;49.756;6.994;2023-06-22T12:12:47;7.97;;;7.10;;
2021;SDS011;1015;49.756;6.994;2023-06-22T12:15:15;7.07;;;6.40;;
2021;SDS011;1015;49.756;6.994;2023-06-22T12:17:42;8.90;;;6.07;;
2021;SDS011;1015;49.756;6.994;2023-06-22T12:20:09;8.93;;;6.20;;
2021;SDS011;1015;49.756;6.994;2023-06-22T12:22:38;8.50;;;6.57;;
2021;SDS011;1015;49.756;6.994;2023-06-22T12:25:06;8.03;;;5.43;;
2021;SDS011;1015;49.756;6.994;2023-06-22T12:27:33;7.23;;;5.70;;
2021;SDS011;1015;49.756;6.994;2023-06-22T12:30:01;7.80;;;6.40;;
2021;SDS011;1015;49.756;6.994;2023-06-22T12:32:28;9.20;;;6.40;;
2021;SDS011;1015;49.756;6.994;2023-06-22T12:34:55;8.73;;;6.40;;
2021;SDS011;1015;49.756;6.994;2023-06-22T12:37:23;9.70;;;6.43;;
2021;SDS011;1015;49.756;6.994;2023-06-22T12:39:53;6.47;;;5.87;;
2021;SDS011;1015;49.756;6.994;2023-06-22T12:42:20;8.20;;;6.13;;
2021;SDS011;1015;49.756;6.994;2023-06-22T12:44:47;8.30;;;5.87;;
2021;SDS011;1015;49.756;6.994;2023-06-22T12:47:15;10.17;;;7.10;;
2021;SDS011;1015;49.756;6.994;2023-06-22T12:49:42;7.90;;;6.60;;
2021;SDS011;1015;49.756;6.994;2023-06-22T12:52:10;8.27;;;6.80;;
2021;SDS011;1015;49.756;6.994;2023-06-22T12:54:37;7.63;;;6.70;;
2021;SDS011;1015;49.756;6.994;2023-06-22T12:57:06;6.80;;;6.07;;
2021;SDS011;1015;49.756;6.994;2023-06-22T12:59:33;9.80;;;6.70;;
2021;SDS011;1015;49.756;6.994;2023-06-22T13:02:01;13.40;;;7.13;;
2021;SDS011;1015;49.756;6.994;2023-06-22T13:04:28;10.83;;;6.60;;
2021;SDS011;1015;49.756;6.994;2023-06-22T13:06:55;10.67;;;7.03;;
2021;SDS011;1015;49.756;6.994;2023-06-22T13:09:22;14.90;;;7.90;;
2021;SDS011;1015;49.756;6.994;2023-06-22T13:11:50;12.17;;;7.30;;
2021;SDS011;1015;49.756;6.994;2023-06-22T13:14:18;16.23;;;7.90;;
2021;SDS011;1015;49.756;6.994;2023-06-22T13:16:46;16.07;;;8.43;;
2021;SDS011;1015;49.756;6.994;2023-06-22T13:19:13;11.43;;;8.00;;
2021;SDS011;1015;49.756;6.994;2023-06-22T13:21:40;10.27;;;8.20;;
2021;SDS011;1015;49.756;6.994;2023-06-22T13:24:07;15.83;;;10.00;;
2021;SDS011;1015;49.756;6.994;2023-06-22T13:26:35;9.60;;;7.93;;
2021;SDS011;1015;49.756;6.994;2023-06-22T13:29:02;10.90;;;8.60;;
2021;SDS011;1015;49.756;6.994;2023-06-22T13:31:31;13.83;;;8.03;;
2021;SDS011;1015;49.756;6.994;2023-06-22T13:33:58;16.50;;;9.80;;
2021;SDS011;1015;49.756;6.994;2023-06-22T13:36:25;12.97;;;9.63;;
2021;SDS011;1015;49.756;6.994;2023-06-22T13:38:55;16.30;;;10.10;;
2021;SDS011;1015;49.756;6.994;2023-06-22T13:41:23;15.00;;;9.43;;
2021;SDS011;1015;49.756;6.994;2023-06-22T13:43:50;11.63;;;10.00;;
2021;SDS011;1015;49.756;6.994;2023-06-22T13:46:18;13.33;;;10.77;;
2021;SDS011;1015;49.756;6.994;2023-06-22T13:48:46;12.50;;;9.67;;
2021;SDS011;1015;49.756;6.994;2023-06-22T13:51:14;10.43;;;7.33;;
2021;SDS011;1015;49.756;6.994;2023-06-22T13:53:41;12.80;;;8.07;;
2021;SDS011;1015;49.756;6.994;2023-06-22T13:56:08;14.20;;;7.83;;
2021;SDS011;1015;49.756;6.994;2023-06-22T13:58:35;14.70;;;7.10;;
2021;SDS011;1015;49.756;6.994;2023-06-22T14:01:02;9.77;;;6.73;;
2021;SDS011;1015;49.756;6.994;2023-06-22T14:03:30;10.70;;;7.07;;
2021;SDS011;1015;49.756;6.994;2023-06-22T14:05:58;8.17;;;6.27;;
2021;SDS011;1015;49.756;6.994;2023-06-22T14:08:25;11.57;;;6.80;;
2021;SDS011;1015;49.756;6.994;2023-06-22T14:10:53;13.93;;;6.37;;
2021;SDS011;1015;49.756;6.994;2023-06-22T14:13:20;12.00;;;6.60;;
2021;SDS011;1015;49.756;6.994;2023-06-22T14:15:47;7.57;;;5.87;;
2021;SDS011;1015;49.756;6.994;2023-06-22T14:18:16;8.50;;;6.30;;
2021;SDS011;1015;49.756;6.994;2023-06-22T14:20:44;7.47;;;5.80;;
2021;SDS011;1015;49.756;6.994;2023-06-22T14:23:14;8.87;;;6.27;;
2021;SDS011;1015;49.756;6.994;2023-06-22T14:25:41;8.07;;;6.17;;
2021;SDS011;1015;49.756;6.994;2023-06-22T14:28:08;11.97;;;6.43;;
2021;SDS011;1015;49.756;6.994;2023-06-22T14:30:36;8.87;;;5.90;;
2021;SDS011;1015;49.756;6.994;2023-06-22T14:33:03;6.60;;;4.93;;
2021;SDS011;1015;49.756;6.994;2023-06-22T14:35:30;8.40;;;5.27;;
2021;SDS011;1015;49.756;6.994;2023-06-22T14:37:57;8.30;;;5.30;;
2021;SDS011;1015;49.756;6.994;2023-06-22T14:40:26;5.60;;;5.03;;
2021;SDS011;1015;49.756;6.994;2023-06-22T14:42:53;7.63;;;5.63;;
2021;SDS011;1015;49.756;6.994;2023-06-22T14:45:21;5.27;;;4.80;;
2021;SDS011;1015;49.756;6.994;2023-06-22T14:47:48;5.50;;;5.00;;
2021;SDS011;1015;49.756;6.994;2023-06-22T14:50:16;5.90;;;4.70;;
2021;SDS011;1015;49.756;6.994;2023-06-22T14:52:43;7.33;;;4.67;;
2021;SDS011;1015;49.756;6.994;2023-06-22T14:55:11;6.30;;;4.90;;
2021;SDS011;1015;49.756;6.994;2023-06-22T14:57:39;9.77;;;4.70;;
2021;SDS011;1015;49.756;6.994;2023-06-22T15:00:07;10.63;;;5.17;;
2021;SDS011;1015;49.756;6.994;2023-06-22T15:02:34;6.40;;;4.60;;
2021;SDS011;1015;49.756;6.994;2023-06-22T15:05:02;4.73;;;4.23;;